sensor_id;sensor_type;location;lat;lon;timestamp;temperature;humidity
64939;DHT22;51453;47.738;7.420;2023-12-07T00:02:14;2.70;99.90
64939;DHT22;51453;47.738;7.420;2023-12-07T00:04:40;2.70;99.90
64939;DHT22;51453;47.738;7.420;2023-12-07T00:07:06;2.50;99.90
64939;DHT22;51453;47.738;7.420;2023-12-07T00:09:31;2.40;99.90
64939;DHT22;51453;47.738;7.420;2023-12-07T00:11:57;2.40;99.90
64939;DHT22;51453;47.738;7.420;2023-12-07T00:14:22;2.40;99.90
64939;DHT22;51453;47.738;7.420;2023-12-07T00:16:48;2.40;99.90
64939;DHT22;51453;47.738;7.420;2023-12-07T00:19:14;2.30;99.90
64939;DHT22;51453;47.738;7.420;2023-12-07T00:21:40;2.30;99.90
64939;DHT22;51453;47.738;7.420;2023-12-07T00:24:05;2.10;99.90
64939;DHT22;51453;47.738;7.420;2023-12-07T00:26:31;2.10;99.90
64939;DHT22;51453;47.738;7.420;2023-12-07T00:28:56;1.90;99.90
64939;DHT22;51453;47.738;7.420;2023-12-07T00:31:22;1.90;99.90
64939;DHT22;51453;47.738;7.420;2023-12-07T00:33:48;1.80;99.90
64939;DHT22;51453;47.738;7.420;2023-12-07T00:36:13;1.70;99.90
64939;DHT22;51453;47.738;7.420;2023-12-07T00:38:39;1.70;99.90
64939;DHT22;51453;47.738;7.420;2023-12-07T00:41:04;1.70;99.90
64939;DHT22;51453;47.738;7.420;2023-12-07T00:43:30;1.60;99.90
64939;DHT22;51453;47.738;7.420;2023-12-07T00:45:56;1.60;99.90
64939;DHT22;51453;47.738;7.420;2023-12-07T00:48:23;1.60;99.90
64939;DHT22;51453;47.738;7.420;2023-12-07T00:50:48;1.60;99.90
64939;DHT22;51453;47.738;7.420;2023-12-07T00:53:14;1.40;99.90
64939;DHT22;51453;47.738;7.420;2023-12-07T00:55:39;1.30;99.90
64939;DHT22;51453;47.738;7.420;2023-12-07T00:58:05;1.30;99.90
64939;DHT22;51453;47.738;7.420;2023-12-07T01:00:31;1.30;99.90
64939;DHT22;51453;47.738;7.420;2023-12-07T01:02:57;1.30;99.90
64939;DHT22;51453;47.738;7.420;2023-12-07T01:05:22;1.00;99.90
64939;DHT22;51453;47.738;7.420;2023-12-07T01:07:48;0.70;99.90
64939;DHT22;51453;47.738;7.420;2023-12-07T01:10:14;0.70;99.90
64939;DHT22;51453;47.738;7.420;2023-12-07T01:12:39;0.80;99.90
64939;DHT22;51453;47.738;7.420;2023-12-07T01:15:05;0.80;99.90
64939;DHT22;51453;47.738;7.420;2023-12-07T01:17:31;0.70;99.90
64939;DHT22;51453;47.738;7.420;2023-12-07T01:19:57;0.60;99.90
64939;DHT22;51453;47.738;7.420;2023-12-07T01:22:22;0.50;99.90
64939;DHT22;51453;47.738;7.420;2023-12-07T01:24:48;0.40;99.90
64939;DHT22;51453;47.738;7.420;2023-12-07T01:27:14;0.30;99.90
64939;DHT22;51453;47.738;7.420;2023-12-07T01:29:39;0.20;99.90
64939;DHT22;51453;47.738;7.420;2023-12-07T01:32:05;0.20;99.90
64939;DHT22;51453;47.738;7.420;2023-12-07T01:34:31;0.10;99.90
64939;DHT22;51453;47.738;7.420;2023-12-07T01:36:58;0.10;99.90
64939;DHT22;51453;47.738;7.420;2023-12-07T01:39:23;0.00;99.90
64939;DHT22;51453;47.738;7.420;2023-12-07T01:41:50;-0.10;99.90
64939;DHT22;51453;47.738;7.420;2023-12-07T01:44:17;-0.10;99.90
64939;DHT22;51453;47.738;7.420;2023-12-07T01:46:42;-0.20;99.90
64939;DHT22;51453;47.738;7.420;2023-12-07T01:49:09;-0.20;99.90
64939;DHT22;51453;47.738;7.420;2023-12-07T01:51:35;-0.20;99.90
64939;DHT22;51453;47.738;7.420;2023-12-07T01:54:01;-0.30;99.90
64939;DHT22;51453;47.738;7.420;2023-12-07T01:56:27;-0.30;99.90
64939;DHT22;51453;47.738;7.420;2023-12-07T01:58:53;-0.20;99.90
64939;DHT22;51453;47.738;7.420;2023-12-07T02:01:19;-0.20;99.90
64939;DHT22;51453;47.738;7.420;2023-12-07T02:03:44;-0.20;99.90
64939;DHT22;51453;47.738;7.420;2023-12-07T02:06:10;-0.30;99.90
64939;DHT22;51453;47.738;7.420;2023-12-07T02:08:37;-0.40;99.90
64939;DHT22;51453;47.738;7.420;2023-12-07T02:11:07;-0.40;99.90
64939;DHT22;51453;47.738;7.420;2023-12-07T02:13:35;-0.40;99.90
64939;DHT22;51453;47.738;7.420;2023-12-07T02:16:06;-0.40;99.90
64939;DHT22;51453;47.738;7.420;2023-12-07T02:18:43;-0.40;99.90
64939;DHT22;51453;47.738;7.420;2023-12-07T02:23:40;-0.50;99.90
64939;DHT22;51453;47.738;7.420;2023-12-07T02:26:07;-0.50;99.90
64939;DHT22;51453;47.738;7.420;2023-12-07T02:28:34;-0.50;99.90
64939;DHT22;51453;47.738;7.420;2023-12-07T02:30:59;-0.60;99.90
64939;DHT22;51453;47.738;7.420;2023-12-07T02:33:25;-0.60;99.90
64939;DHT22;51453;47.738;7.420;2023-12-07T02:35:51;-0.70;99.90
64939;DHT22;51453;47.738;7.420;2023-12-07T02:38:17;-0.70;99.90
64939;DHT22;51453;47.738;7.420;2023-12-07T02:40:44;-0.70;99.90
64939;DHT22;51453;47.738;7.420;2023-12-07T02:43:11;-0.70;99.90
64939;DHT22;51453;47.738;7.420;2023-12-07T02:45:38;-0.80;99.90
64939;DHT22;51453;47.738;7.420;2023-12-07T02:48:04;-0.70;99.90
64939;DHT22;51453;47.738;7.420;2023-12-07T02:50:29;-0.70;99.90
64939;DHT22;51453;47.738;7.420;2023-12-07T02:52:55;-0.60;99.90
64939;DHT22;51453;47.738;7.420;2023-12-07T02:55:22;-0.50;99.90
64939;DHT22;51453;47.738;7.420;2023-12-07T02:57:49;-0.30;99.90
64939;DHT22;51453;47.738;7.420;2023-12-07T03:00:15;-0.20;99.90
64939;DHT22;51453;47.738;7.420;2023-12-07T03:02:41;-0.10;99.90
64939;DHT22;51453;47.738;7.420;2023-12-07T03:05:07;0.00;99.90
64939;DHT22;51453;47.738;7.420;2023-12-07T03:07:33;-0.10;99.90
64939;DHT22;51453;47.738;7.420;2023-12-07T03:09:59;-0.10;99.90
64939;DHT22;51453;47.738;7.420;2023-12-07T03:12:25;-0.10;99.90
64939;DHT22;51453;47.738;7.420;2023-12-07T03:14:51;-0.20;99.90
64939;DHT22;51453;47.738;7.420;2023-12-07T03:17:16;-0.20;99.90
64939;DHT22;51453;47.738;7.420;2023-12-07T03:19:42;-0.20;99.90
64939;DHT22;51453;47.738;7.420;2023-12-07T03:22:08;-0.20;99.90
64939;DHT22;51453;47.738;7.420;2023-12-07T03:24:37;-0.30;99.90
64939;DHT22;51453;47.738;7.420;2023-12-07T03:27:04;-0.40;99.90
64939;DHT22;51453;47.738;7.420;2023-12-07T03:29:30;-0.40;99.90
64939;DHT22;51453;47.738;7.420;2023-12-07T03:31:55;-0.50;99.90
64939;DHT22;51453;47.738;7.420;2023-12-07T03:34:21;-0.60;99.90
64939;DHT22;51453;47.738;7.420;2023-12-07T03:36:47;-0.70;99.90
64939;DHT22;51453;47.738;7.420;2023-12-07T03:39:14;-0.70;99.90
64939;DHT22;51453;47.738;7.420;2023-12-07T03:41:40;-0.60;99.90
64939;DHT22;51453;47.738;7.420;2023-12-07T03:44:06;-0.60;99.90
64939;DHT22;51453;47.738;7.420;2023-12-07T03:46:31;-0.70;99.90
64939;DHT22;51453;47.738;7.420;2023-12-07T03:48:57;-0.80;99.90
64939;DHT22;51453;47.738;7.420;2023-12-07T03:51:22;-0.80;99.90
64939;DHT22;51453;47.738;7.420;2023-12-07T03:53:48;-0.80;99.90
64939;DHT22;51453;47.738;7.420;2023-12-07T03:56:28;-0.60;99.90
64939;DHT22;51453;47.738;7.420;2023-12-07T03:58:54;-0.40;99.90
64939;DHT22;51453;47.738;7.420;2023-12-07T04:01:23;-0.30;99.90
64939;DHT22;51453;47.738;7.420;2023-12-07T04:03:49;-0.20;99.90
64939;DHT22;51453;47.738;7.420;2023-12-07T04:06:15;-0.10;99.90
64939;DHT22;51453;47.738;7.420;2023-12-07T04:08:42;-0.10;99.90
64939;DHT22;51453;47.738;7.420;2023-12-07T04:11:07;-0.10;99.90
64939;DHT22;51453;47.738;7.420;2023-12-07T04:13:33;0.00;99.90
64939;DHT22;51453;47.738;7.420;2023-12-07T04:15:59;0.10;99.90
64939;DHT22;51453;47.738;7.420;2023-12-07T04:18:24;0.20;99.90
64939;DHT22;51453;47.738;7.420;2023-12-07T04:20:50;0.30;99.90
64939;DHT22;51453;47.738;7.420;2023-12-07T04:23:15;0.30;99.90
64939;DHT22;51453;47.738;7.420;2023-12-07T04:25:41;0.40;99.90
64939;DHT22;51453;47.738;7.420;2023-12-07T04:28:07;0.50;99.90
64939;DHT22;51453;47.738;7.420;2023-12-07T04:30:32;0.60;99.90
64939;DHT22;51453;47.738;7.420;2023-12-07T04:32:58;0.70;99.90
64939;DHT22;51453;47.738;7.420;2023-12-07T04:35:24;0.70;99.90
64939;DHT22;51453;47.738;7.420;2023-12-07T04:37:49;0.80;99.90
64939;DHT22;51453;47.738;7.420;2023-12-07T04:40:15;0.80;99.90
64939;DHT22;51453;47.738;7.420;2023-12-07T04:42:41;0.80;99.90
64939;DHT22;51453;47.738;7.420;2023-12-07T04:45:07;0.90;99.90
64939;DHT22;51453;47.738;7.420;2023-12-07T04:47:32;0.90;99.90
64939;DHT22;51453;47.738;7.420;2023-12-07T04:49:59;1.00;99.90
64939;DHT22;51453;47.738;7.420;2023-12-07T04:52:27;1.00;99.90
64939;DHT22;51453;47.738;7.420;2023-12-07T04:54:52;1.10;99.90
64939;DHT22;51453;47.738;7.420;2023-12-07T04:57:18;1.10;99.90
64939;DHT22;51453;47.738;7.420;2023-12-07T04:59:43;1.20;99.90
64939;DHT22;51453;47.738;7.420;2023-12-07T05:02:14;1.10;99.90
64939;DHT22;51453;47.738;7.420;2023-12-07T05:04:39;1.10;99.90
64939;DHT22;51453;47.738;7.420;2023-12-07T05:07:05;1.10;99.90
64939;DHT22;51453;47.738;7.420;2023-12-07T05:09:31;1.00;99.90
64939;DHT22;51453;47.738;7.420;2023-12-07T05:11:56;0.90;99.90
64939;DHT22;51453;47.738;7.420;2023-12-07T05:14:22;0.80;99.90
64939;DHT22;51453;47.738;7.420;2023-12-07T05:16:48;0.70;99.90
64939;DHT22;51453;47.738;7.420;2023-12-07T05:19:19;0.70;99.90
64939;DHT22;51453;47.738;7.420;2023-12-07T05:21:46;0.70;99.90
64939;DHT22;51453;47.738;7.420;2023-12-07T05:24:12;0.80;99.90
64939;DHT22;51453;47.738;7.420;2023-12-07T05:26:40;0.80;99.90
64939;DHT22;51453;47.738;7.420;2023-12-07T05:29:06;0.80;99.90
64939;DHT22;51453;47.738;7.420;2023-12-07T05:31:31;1.00;99.90
64939;DHT22;51453;47.738;7.420;2023-12-07T05:33:57;0.90;99.90
64939;DHT22;51453;47.738;7.420;2023-12-07T05:36:23;0.90;99.90
64939;DHT22;51453;47.738;7.420;2023-12-07T05:38:48;0.90;99.90
64939;DHT22;51453;47.738;7.420;2023-12-07T05:41:14;0.70;99.90
64939;DHT22;51453;47.738;7.420;2023-12-07T05:43:42;0.80;99.90
64939;DHT22;51453;47.738;7.420;2023-12-07T05:46:08;0.80;99.90
64939;DHT22;51453;47.738;7.420;2023-12-07T05:48:33;0.80;99.90
64939;DHT22;51453;47.738;7.420;2023-12-07T05:51:01;0.80;99.90
64939;DHT22;51453;47.738;7.420;2023-12-07T05:53:27;0.90;99.90
64939;DHT22;51453;47.738;7.420;2023-12-07T05:55:53;1.10;99.90
64939;DHT22;51453;47.738;7.420;2023-12-07T05:58:19;1.20;99.90
64939;DHT22;51453;47.738;7.420;2023-12-07T06:00:45;1.30;99.90
64939;DHT22;51453;47.738;7.420;2023-12-07T06:03:15;1.20;99.90
64939;DHT22;51453;47.738;7.420;2023-12-07T06:05:41;1.20;99.90
64939;DHT22;51453;47.738;7.420;2023-12-07T06:08:07;1.30;99.90
64939;DHT22;51453;47.738;7.420;2023-12-07T06:10:34;1.20;99.90
64939;DHT22;51453;47.738;7.420;2023-12-07T06:13:00;1.30;99.90
64939;DHT22;51453;47.738;7.420;2023-12-07T06:15:27;1.40;99.90
64939;DHT22;51453;47.738;7.420;2023-12-07T06:17:54;1.50;99.90
64939;DHT22;51453;47.738;7.420;2023-12-07T06:20:20;1.60;99.90
64939;DHT22;51453;47.738;7.420;2023-12-07T06:22:45;1.60;99.90
64939;DHT22;51453;47.738;7.420;2023-12-07T06:25:11;1.60;99.90
64939;DHT22;51453;47.738;7.420;2023-12-07T06:27:38;1.70;99.90
64939;DHT22;51453;47.738;7.420;2023-12-07T06:30:05;1.70;99.90
64939;DHT22;51453;47.738;7.420;2023-12-07T06:32:34;1.80;99.90
64939;DHT22;51453;47.738;7.420;2023-12-07T06:35:00;1.80;99.90
64939;DHT22;51453;47.738;7.420;2023-12-07T06:37:26;1.80;99.90
64939;DHT22;51453;47.738;7.420;2023-12-07T06:39:52;1.70;99.90
64939;DHT22;51453;47.738;7.420;2023-12-07T06:42:17;1.60;99.90
64939;DHT22;51453;47.738;7.420;2023-12-07T06:44:46;1.60;99.90
64939;DHT22;51453;47.738;7.420;2023-12-07T06:47:11;1.50;99.90
64939;DHT22;51453;47.738;7.420;2023-12-07T06:49:37;1.50;99.90
64939;DHT22;51453;47.738;7.420;2023-12-07T06:52:03;1.50;99.90
64939;DHT22;51453;47.738;7.420;2023-12-07T06:54:28;1.60;99.90
64939;DHT22;51453;47.738;7.420;2023-12-07T06:56:54;1.60;99.90
64939;DHT22;51453;47.738;7.420;2023-12-07T06:59:20;1.70;99.90
64939;DHT22;51453;47.738;7.420;2023-12-07T07:01:46;1.70;99.90
64939;DHT22;51453;47.738;7.420;2023-12-07T07:04:11;1.80;99.90
64939;DHT22;51453;47.738;7.420;2023-12-07T07:06:39;1.80;99.90
64939;DHT22;51453;47.738;7.420;2023-12-07T07:09:05;1.80;99.90
64939;DHT22;51453;47.738;7.420;2023-12-07T07:11:30;1.80;99.90
64939;DHT22;51453;47.738;7.420;2023-12-07T07:13:56;1.80;99.90
64939;DHT22;51453;47.738;7.420;2023-12-07T07:16:22;1.80;99.90
64939;DHT22;51453;47.738;7.420;2023-12-07T07:18:47;1.80;99.90
64939;DHT22;51453;47.738;7.420;2023-12-07T07:21:13;1.80;99.90
64939;DHT22;51453;47.738;7.420;2023-12-07T07:23:39;1.70;99.90
64939;DHT22;51453;47.738;7.420;2023-12-07T07:26:04;1.70;99.90
64939;DHT22;51453;47.738;7.420;2023-12-07T07:28:30;1.70;99.90
64939;DHT22;51453;47.738;7.420;2023-12-07T07:30:55;1.60;99.90
64939;DHT22;51453;47.738;7.420;2023-12-07T07:33:21;1.70;99.90
64939;DHT22;51453;47.738;7.420;2023-12-07T07:35:47;1.80;99.90
64939;DHT22;51453;47.738;7.420;2023-12-07T07:38:13;1.80;99.90
64939;DHT22;51453;47.738;7.420;2023-12-07T07:40:39;1.70;99.90
64939;DHT22;51453;47.738;7.420;2023-12-07T07:43:05;1.80;99.90
64939;DHT22;51453;47.738;7.420;2023-12-07T07:45:31;1.70;99.90
64939;DHT22;51453;47.738;7.420;2023-12-07T07:47:56;1.70;99.90
64939;DHT22;51453;47.738;7.420;2023-12-07T07:50:22;1.70;99.90
64939;DHT22;51453;47.738;7.420;2023-12-07T07:52:48;1.80;99.90
64939;DHT22;51453;47.738;7.420;2023-12-07T07:55:13;1.90;99.90
64939;DHT22;51453;47.738;7.420;2023-12-07T07:57:39;2.00;99.90
64939;DHT22;51453;47.738;7.420;2023-12-07T08:00:05;2.10;99.90
64939;DHT22;51453;47.738;7.420;2023-12-07T08:02:33;2.00;99.90
64939;DHT22;51453;47.738;7.420;2023-12-07T08:04:59;2.20;99.90
64939;DHT22;51453;47.738;7.420;2023-12-07T08:07:25;2.40;99.90
64939;DHT22;51453;47.738;7.420;2023-12-07T08:09:50;2.40;99.90
64939;DHT22;51453;47.738;7.420;2023-12-07T08:12:16;2.50;99.90
64939;DHT22;51453;47.738;7.420;2023-12-07T08:14:42;2.50;99.90
64939;DHT22;51453;47.738;7.420;2023-12-07T08:17:09;2.50;99.90
64939;DHT22;51453;47.738;7.420;2023-12-07T08:19:34;2.60;99.90
64939;DHT22;51453;47.738;7.420;2023-12-07T08:22:00;2.60;99.90
64939;DHT22;51453;47.738;7.420;2023-12-07T08:24:26;2.60;99.90
64939;DHT22;51453;47.738;7.420;2023-12-07T08:26:51;2.50;99.90
64939;DHT22;51453;47.738;7.420;2023-12-07T08:29:17;2.50;99.90
64939;DHT22;51453;47.738;7.420;2023-12-07T08:31:42;2.50;99.90
64939;DHT22;51453;47.738;7.420;2023-12-07T08:34:08;2.60;99.90
64939;DHT22;51453;47.738;7.420;2023-12-07T08:36:34;2.60;99.90
64939;DHT22;51453;47.738;7.420;2023-12-07T08:38:59;2.50;99.90
64939;DHT22;51453;47.738;7.420;2023-12-07T08:41:25;2.30;99.90
64939;DHT22;51453;47.738;7.420;2023-12-07T08:43:50;2.40;99.90
64939;DHT22;51453;47.738;7.420;2023-12-07T08:46:16;2.40;99.90
64939;DHT22;51453;47.738;7.420;2023-12-07T08:48:42;2.50;99.90
64939;DHT22;51453;47.738;7.420;2023-12-07T08:51:08;2.50;99.90
64939;DHT22;51453;47.738;7.420;2023-12-07T08:53:34;2.60;99.90
64939;DHT22;51453;47.738;7.420;2023-12-07T08:56:01;2.60;99.90
64939;DHT22;51453;47.738;7.420;2023-12-07T08:58:26;2.60;99.90
64939;DHT22;51453;47.738;7.420;2023-12-07T09:00:52;2.70;99.90
64939;DHT22;51453;47.738;7.420;2023-12-07T09:03:18;2.80;99.90
64939;DHT22;51453;47.738;7.420;2023-12-07T09:05:43;3.00;99.90
64939;DHT22;51453;47.738;7.420;2023-12-07T09:08:09;3.00;99.90
64939;DHT22;51453;47.738;7.420;2023-12-07T09:10:35;3.00;99.90
64939;DHT22;51453;47.738;7.420;2023-12-07T09:13:01;3.00;99.90
64939;DHT22;51453;47.738;7.420;2023-12-07T09:15:26;2.90;99.90
64939;DHT22;51453;47.738;7.420;2023-12-07T09:17:52;3.00;99.90
64939;DHT22;51453;47.738;7.420;2023-12-07T09:20:18;3.20;99.90
64939;DHT22;51453;47.738;7.420;2023-12-07T09:22:44;3.30;99.90
64939;DHT22;51453;47.738;7.420;2023-12-07T09:25:11;3.30;99.90
64939;DHT22;51453;47.738;7.420;2023-12-07T09:27:37;3.50;99.90
64939;DHT22;51453;47.738;7.420;2023-12-07T09:30:08;3.50;99.90
64939;DHT22;51453;47.738;7.420;2023-12-07T09:32:37;3.70;99.90
64939;DHT22;51453;47.738;7.420;2023-12-07T09:35:05;3.80;99.90
64939;DHT22;51453;47.738;7.420;2023-12-07T09:37:32;3.80;99.90
64939;DHT22;51453;47.738;7.420;2023-12-07T09:39:58;3.80;99.90
64939;DHT22;51453;47.738;7.420;2023-12-07T09:42:27;3.80;99.90
64939;DHT22;51453;47.738;7.420;2023-12-07T09:44:54;3.70;99.90
64939;DHT22;51453;47.738;7.420;2023-12-07T09:47:20;3.80;99.90
64939;DHT22;51453;47.738;7.420;2023-12-07T09:49:46;3.90;99.90
64939;DHT22;51453;47.738;7.420;2023-12-07T09:52:11;4.00;99.90
64939;DHT22;51453;47.738;7.420;2023-12-07T09:54:41;4.30;99.90
64939;DHT22;51453;47.738;7.420;2023-12-07T09:57:07;4.60;99.90
64939;DHT22;51453;47.738;7.420;2023-12-07T09:59:35;4.80;99.90
64939;DHT22;51453;47.738;7.420;2023-12-07T10:02:01;4.90;99.90
64939;DHT22;51453;47.738;7.420;2023-12-07T10:04:27;4.60;99.90
64939;DHT22;51453;47.738;7.420;2023-12-07T10:06:53;4.60;99.90
64939;DHT22;51453;47.738;7.420;2023-12-07T10:09:19;4.80;99.90
64939;DHT22;51453;47.738;7.420;2023-12-07T10:11:47;5.00;99.90
64939;DHT22;51453;47.738;7.420;2023-12-07T10:14:13;4.80;99.90
64939;DHT22;51453;47.738;7.420;2023-12-07T10:16:38;4.80;99.90
64939;DHT22;51453;47.738;7.420;2023-12-07T10:19:17;4.90;99.90
64939;DHT22;51453;47.738;7.420;2023-12-07T10:21:47;4.90;99.90
64939;DHT22;51453;47.738;7.420;2023-12-07T10:24:13;4.80;99.90
64939;DHT22;51453;47.738;7.420;2023-12-07T10:26:39;4.60;99.90
64939;DHT22;51453;47.738;7.420;2023-12-07T10:29:05;4.40;99.90
64939;DHT22;51453;47.738;7.420;2023-12-07T10:31:32;4.20;99.90
64939;DHT22;51453;47.738;7.420;2023-12-07T10:33:59;4.20;99.90
64939;DHT22;51453;47.738;7.420;2023-12-07T10:36:25;4.10;99.90
64939;DHT22;51453;47.738;7.420;2023-12-07T10:38:52;4.10;99.90
64939;DHT22;51453;47.738;7.420;2023-12-07T10:41:21;4.20;99.90
64939;DHT22;51453;47.738;7.420;2023-12-07T10:43:53;4.30;99.90
64939;DHT22;51453;47.738;7.420;2023-12-07T10:46:22;4.40;99.90
64939;DHT22;51453;47.738;7.420;2023-12-07T10:48:51;4.60;99.90
64939;DHT22;51453;47.738;7.420;2023-12-07T10:51:31;4.80;99.90
64939;DHT22;51453;47.738;7.420;2023-12-07T10:53:57;5.10;99.90
64939;DHT22;51453;47.738;7.420;2023-12-07T10:56:39;5.20;99.90
64939;DHT22;51453;47.738;7.420;2023-12-07T10:59:10;5.10;99.90
64939;DHT22;51453;47.738;7.420;2023-12-07T11:01:39;5.10;99.90
64939;DHT22;51453;47.738;7.420;2023-12-07T11:04:06;5.30;99.90
64939;DHT22;51453;47.738;7.420;2023-12-07T11:06:35;5.50;99.90
64939;DHT22;51453;47.738;7.420;2023-12-07T11:09:04;5.70;99.90
64939;DHT22;51453;47.738;7.420;2023-12-07T11:11:42;5.60;99.90
64939;DHT22;51453;47.738;7.420;2023-12-07T11:14:10;5.20;99.90
64939;DHT22;51453;47.738;7.420;2023-12-07T11:16:40;5.00;99.90
64939;DHT22;51453;47.738;7.420;2023-12-07T11:22:05;4.90;99.90
64939;DHT22;51453;47.738;7.420;2023-12-07T11:24:31;4.80;99.90
64939;DHT22;51453;47.738;7.420;2023-12-07T11:26:57;4.60;99.90
64939;DHT22;51453;47.738;7.420;2023-12-07T11:29:28;4.50;99.90
64939;DHT22;51453;47.738;7.420;2023-12-07T11:32:04;4.50;99.90
64939;DHT22;51453;47.738;7.420;2023-12-07T11:34:40;4.40;99.90
64939;DHT22;51453;47.738;7.420;2023-12-07T11:37:11;4.40;99.90
64939;DHT22;51453;47.738;7.420;2023-12-07T11:39:40;4.40;99.90
64939;DHT22;51453;47.738;7.420;2023-12-07T11:42:15;4.30;99.90
64939;DHT22;51453;47.738;7.420;2023-12-07T11:44:42;4.50;99.90
64939;DHT22;51453;47.738;7.420;2023-12-07T11:47:10;4.70;99.90
64939;DHT22;51453;47.738;7.420;2023-12-07T11:49:42;4.80;99.90
64939;DHT22;51453;47.738;7.420;2023-12-07T11:52:19;4.80;99.90
64939;DHT22;51453;47.738;7.420;2023-12-07T11:54:49;4.70;99.90
64939;DHT22;51453;47.738;7.420;2023-12-07T11:57:16;4.50;99.90
64939;DHT22;51453;47.738;7.420;2023-12-07T11:59:44;4.40;99.90
64939;DHT22;51453;47.738;7.420;2023-12-07T12:02:13;4.30;99.90
64939;DHT22;51453;47.738;7.420;2023-12-07T12:04:42;4.20;99.90
64939;DHT22;51453;47.738;7.420;2023-12-07T12:07:07;4.30;99.90
64939;DHT22;51453;47.738;7.420;2023-12-07T12:09:33;4.30;99.90
64939;DHT22;51453;47.738;7.420;2023-12-07T12:12:00;4.30;99.90
64939;DHT22;51453;47.738;7.420;2023-12-07T12:14:26;4.40;99.90
64939;DHT22;51453;47.738;7.420;2023-12-07T12:16:52;4.30;99.90
64939;DHT22;51453;47.738;7.420;2023-12-07T12:19:19;4.40;99.90
64939;DHT22;51453;47.738;7.420;2023-12-07T12:21:45;4.60;99.90
64939;DHT22;51453;47.738;7.420;2023-12-07T12:24:12;4.80;99.90
64939;DHT22;51453;47.738;7.420;2023-12-07T12:26:41;4.90;99.90
64939;DHT22;51453;47.738;7.420;2023-12-07T12:29:07;5.10;99.90
64939;DHT22;51453;47.738;7.420;2023-12-07T12:31:34;4.80;99.90
64939;DHT22;51453;47.738;7.420;2023-12-07T12:34:05;5.10;99.90
64939;DHT22;51453;47.738;7.420;2023-12-07T12:36:34;5.30;99.90
64939;DHT22;51453;47.738;7.420;2023-12-07T12:38:59;5.60;99.90
64939;DHT22;51453;47.738;7.420;2023-12-07T12:41:25;5.70;99.90
64939;DHT22;51453;47.738;7.420;2023-12-07T12:43:52;5.70;99.90
64939;DHT22;51453;47.738;7.420;2023-12-07T12:46:18;5.70;99.90
64939;DHT22;51453;47.738;7.420;2023-12-07T12:49:13;5.70;99.90
64939;DHT22;51453;47.738;7.420;2023-12-07T12:51:39;5.70;99.90
64939;DHT22;51453;47.738;7.420;2023-12-07T12:54:04;5.70;99.90
64939;DHT22;51453;47.738;7.420;2023-12-07T12:56:30;5.70;99.90
64939;DHT22;51453;47.738;7.420;2023-12-07T12:58:56;5.70;99.90
64939;DHT22;51453;47.738;7.420;2023-12-07T13:01:22;5.80;99.90
64939;DHT22;51453;47.738;7.420;2023-12-07T13:03:48;5.70;99.90
64939;DHT22;51453;47.738;7.420;2023-12-07T13:06:14;5.70;99.90
64939;DHT22;51453;47.738;7.420;2023-12-07T13:08:43;5.70;99.90
64939;DHT22;51453;47.738;7.420;2023-12-07T13:11:09;5.70;99.90
64939;DHT22;51453;47.738;7.420;2023-12-07T13:13:35;5.60;99.90
64939;DHT22;51453;47.738;7.420;2023-12-07T13:16:00;5.50;99.90
64939;DHT22;51453;47.738;7.420;2023-12-07T13:18:26;5.50;99.90
64939;DHT22;51453;47.738;7.420;2023-12-07T13:20:51;5.40;99.90
64939;DHT22;51453;47.738;7.420;2023-12-07T13:23:17;5.40;99.90
64939;DHT22;51453;47.738;7.420;2023-12-07T13:25:42;5.40;99.90
64939;DHT22;51453;47.738;7.420;2023-12-07T13:28:08;5.50;99.90
64939;DHT22;51453;47.738;7.420;2023-12-07T13:30:34;5.40;99.90
64939;DHT22;51453;47.738;7.420;2023-12-07T13:33:01;5.50;99.90
64939;DHT22;51453;47.738;7.420;2023-12-07T13:35:27;5.40;99.90
64939;DHT22;51453;47.738;7.420;2023-12-07T13:37:53;5.40;99.90
64939;DHT22;51453;47.738;7.420;2023-12-07T13:40:18;5.30;99.90
64939;DHT22;51453;47.738;7.420;2023-12-07T13:42:44;5.30;99.90
64939;DHT22;51453;47.738;7.420;2023-12-07T13:45:09;5.20;99.90
64939;DHT22;51453;47.738;7.420;2023-12-07T13:47:35;5.20;99.90
64939;DHT22;51453;47.738;7.420;2023-12-07T13:50:04;5.30;99.90
64939;DHT22;51453;47.738;7.420;2023-12-07T13:52:30;5.30;99.90
64939;DHT22;51453;47.738;7.420;2023-12-07T13:54:56;5.40;99.90
64939;DHT22;51453;47.738;7.420;2023-12-07T13:57:23;5.30;99.90
64939;DHT22;51453;47.738;7.420;2023-12-07T13:59:54;5.20;99.90
64939;DHT22;51453;47.738;7.420;2023-12-07T14:02:19;5.20;99.90
64939;DHT22;51453;47.738;7.420;2023-12-07T14:04:49;5.10;99.90
64939;DHT22;51453;47.738;7.420;2023-12-07T14:07:19;5.00;99.90
64939;DHT22;51453;47.738;7.420;2023-12-07T14:09:48;5.00;99.90
64939;DHT22;51453;47.738;7.420;2023-12-07T14:12:13;5.00;99.90
64939;DHT22;51453;47.738;7.420;2023-12-07T14:14:44;5.00;99.90
64939;DHT22;51453;47.738;7.420;2023-12-07T14:17:14;4.90;99.90
64939;DHT22;51453;47.738;7.420;2023-12-07T14:19:40;5.00;99.90
64939;DHT22;51453;47.738;7.420;2023-12-07T14:22:06;5.10;99.90
64939;DHT22;51453;47.738;7.420;2023-12-07T14:24:35;5.00;99.90
64939;DHT22;51453;47.738;7.420;2023-12-07T14:27:02;5.10;99.90
64939;DHT22;51453;47.738;7.420;2023-12-07T14:29:29;5.20;99.90
64939;DHT22;51453;47.738;7.420;2023-12-07T14:31:55;5.30;99.90
64939;DHT22;51453;47.738;7.420;2023-12-07T14:34:21;5.30;99.90
64939;DHT22;51453;47.738;7.420;2023-12-07T14:36:46;5.20;99.90
64939;DHT22;51453;47.738;7.420;2023-12-07T14:39:12;5.20;99.90
64939;DHT22;51453;47.738;7.420;2023-12-07T14:41:49;5.10;99.90
64939;DHT22;51453;47.738;7.420;2023-12-07T14:44:18;5.00;99.90
64939;DHT22;51453;47.738;7.420;2023-12-07T14:46:47;4.90;99.90
64939;DHT22;51453;47.738;7.420;2023-12-07T14:49:16;4.70;99.90
64939;DHT22;51453;47.738;7.420;2023-12-07T14:51:42;4.60;99.90
64939;DHT22;51453;47.738;7.420;2023-12-07T14:54:08;4.60;99.90
64939;DHT22;51453;47.738;7.420;2023-12-07T14:56:38;4.40;99.90
64939;DHT22;51453;47.738;7.420;2023-12-07T14:59:04;4.30;99.90
64939;DHT22;51453;47.738;7.420;2023-12-07T15:01:30;4.20;99.90
64939;DHT22;51453;47.738;7.420;2023-12-07T15:03:59;4.10;99.90
64939;DHT22;51453;47.738;7.420;2023-12-07T15:06:28;4.00;99.90
64939;DHT22;51453;47.738;7.420;2023-12-07T15:08:54;3.90;99.90
64939;DHT22;51453;47.738;7.420;2023-12-07T15:11:21;3.80;99.90
64939;DHT22;51453;47.738;7.420;2023-12-07T15:13:48;3.70;99.90
64939;DHT22;51453;47.738;7.420;2023-12-07T15:16:13;3.60;99.90
64939;DHT22;51453;47.738;7.420;2023-12-07T15:18:39;3.40;99.90
64939;DHT22;51453;47.738;7.420;2023-12-07T15:21:11;3.30;99.90
64939;DHT22;51453;47.738;7.420;2023-12-07T15:23:38;3.20;99.90
64939;DHT22;51453;47.738;7.420;2023-12-07T15:26:04;3.10;99.90
64939;DHT22;51453;47.738;7.420;2023-12-07T15:28:30;3.10;99.90
64939;DHT22;51453;47.738;7.420;2023-12-07T15:30:55;2.90;99.90
64939;DHT22;51453;47.738;7.420;2023-12-07T15:33:21;2.80;99.90
64939;DHT22;51453;47.738;7.420;2023-12-07T15:35:46;2.70;99.90
64939;DHT22;51453;47.738;7.420;2023-12-07T15:38:12;2.60;99.90
64939;DHT22;51453;47.738;7.420;2023-12-07T15:40:38;2.40;99.90
64939;DHT22;51453;47.738;7.420;2023-12-07T15:43:04;2.30;99.90
64939;DHT22;51453;47.738;7.420;2023-12-07T15:45:30;2.20;99.90
64939;DHT22;51453;47.738;7.420;2023-12-07T15:47:56;2.10;99.90